createdAt,value
2023-05-14T00:01:15.123Z,97520.97
2023-05-14T00:05:16.654Z,97519.41
2023-05-14T00:09:19.185Z,97518.22
2023-05-14T00:13:20.739Z,97515.41
2023-05-14T00:17:23.713Z,97516.59
2023-05-14T00:21:25.284Z,97506.00
2023-05-14T00:25:27.025Z,97491.25
2023-05-14T00:29:28.560Z,97491.59
2023-05-14T00:33:31.423Z,97483.84
2023-05-14T00:37:32.944Z,97482.03
2023-05-14T00:41:34.458Z,97488.91
2023-05-14T00:45:35.976Z,97484.44
2023-05-14T00:49:39.030Z,97489.34
2023-05-14T00:53:41.249Z,97489.66
2023-05-14T00:57:43.394Z,97485.25
2023-05-14T01:01:44.983Z,97478.09
2023-05-14T01:05:56.098Z,97484.44
2023-05-14T01:10:01.488Z,97484.72
2023-05-14T01:14:10.943Z,97484.81
2023-05-14T01:18:16.977Z,97473.53
2023-05-14T01:22:19.864Z,97473.94
2023-05-14T01:26:21.531Z,97480.34
2023-05-14T01:30:29.399Z,97479.00
2023-05-14T01:34:31.618Z,97477.38
2023-05-14T01:38:36.364Z,97474.06
2023-05-14T01:42:38.428Z,97472.00
2023-05-14T01:46:40.045Z,97468.81
2023-05-14T01:50:41.788Z,97457.84
2023-05-14T01:54:44.769Z,97466.78
2023-05-14T01:58:46.345Z,97473.69
2023-05-14T02:02:47.978Z,97467.97
2023-05-14T02:06:49.553Z,97460.81
2023-05-14T02:10:52.465Z,97462.44
2023-05-14T02:14:54.004Z,97460.56
2023-05-14T02:18:55.544Z,97473.84
2023-05-14T02:22:57.081Z,97456.13
2023-05-14T02:27:00.041Z,97455.53
2023-05-14T02:31:01.626Z,97457.97
2023-05-14T02:35:03.486Z,97462.97
2023-05-14T02:39:05.014Z,97456.84
2023-05-14T02:43:07.854Z,97450.16
2023-05-14T02:47:09.551Z,97440.91
2023-05-14T02:51:11.613Z,97436.34
2023-05-14T02:55:13.206Z,97440.84
2023-05-14T02:59:16.077Z,97427.13
2023-05-14T03:03:18.871Z,97433.84
2023-05-14T03:07:20.784Z,97430.47
2023-05-14T03:11:22.470Z,97430.25
2023-05-14T03:15:25.465Z,97424.91
2023-05-14T03:19:27.001Z,97423.88
2023-05-14T03:23:28.689Z,97422.81
2023-05-14T03:27:30.196Z,97428.13
2023-05-14T03:31:33.201Z,97427.34
2023-05-14T03:35:34.750Z,97429.09
2023-05-14T03:39:36.362Z,97425.84
2023-05-14T03:43:37.886Z,97431.53
2023-05-14T03:47:40.765Z,97431.72
2023-05-14T03:51:42.294Z,97434.38
2023-05-14T03:55:43.813Z,97432.53
2023-05-14T03:59:45.319Z,97430.03
2023-05-14T04:03:48.331Z,97432.56
2023-05-14T04:07:49.923Z,97430.13
2023-05-14T04:11:51.494Z,97425.44
2023-05-14T04:15:53.040Z,97422.88
2023-05-14T04:19:55.901Z,97426.53
2023-05-14T04:23:57.483Z,97415.78
2023-05-14T04:27:58.984Z,97425.72
2023-05-14T04:32:00.540Z,97413.84
2023-05-14T04:36:03.947Z,97409.41
2023-05-14T04:40:07.939Z,97414.81
2023-05-14T04:44:09.497Z,97414.19
2023-05-14T04:48:11.035Z,97417.94
2023-05-14T04:52:13.931Z,97423.09
2023-05-14T04:56:15.420Z,97418.31
2023-05-14T05:00:17.406Z,97406.44
2023-05-14T05:04:18.997Z,97406.44
2023-05-14T05:08:21.874Z,97408.22
2023-05-14T05:12:23.368Z,97403.03
2023-05-14T05:16:25.175Z,97413.41
2023-05-14T05:20:26.797Z,97417.63
2023-05-14T05:24:29.668Z,97404.03
2023-05-14T05:28:31.201Z,97411.56
2023-05-14T05:32:32.766Z,97404.53
2023-05-14T05:36:34.335Z,97398.25
2023-05-14T05:40:37.210Z,97403.69
2023-05-14T05:44:38.724Z,97391.41
2023-05-14T05:48:40.259Z,97403.59
2023-05-14T05:52:41.842Z,97396.06
2023-05-14T05:56:44.765Z,97395.78
2023-05-14T06:00:46.871Z,97394.09
2023-05-14T06:04:48.438Z,97397.66
2023-05-14T06:08:49.989Z,97397.19
2023-05-14T06:12:52.865Z,97391.94
2023-05-14T06:16:54.456Z,97396.81
2023-05-14T06:20:56.024Z,97397.28
2023-05-14T06:24:57.750Z,97401.41
2023-05-14T06:29:00.615Z,97403.34
2023-05-14T06:33:02.195Z,97398.41
2023-05-14T06:37:03.960Z,97404.09
2023-05-14T06:41:05.554Z,97396.84
2023-05-14T06:45:09.190Z,97392.28
2023-05-14T06:49:10.862Z,97392.97
2023-05-14T06:53:12.719Z,97413.16
2023-05-14T06:57:14.254Z,97409.88
2023-05-14T07:01:17.231Z,97401.16
2023-05-14T07:05:18.780Z,97398.59
2023-05-14T07:09:20.280Z,97397.44
2023-05-14T07:13:21.764Z,97390.44
2023-05-14T07:17:24.788Z,97391.56
2023-05-14T07:21:26.519Z,97393.00
2023-05-14T07:25:28.047Z,97394.13
2023-05-14T07:29:29.633Z,97377.13
2023-05-14T07:33:32.662Z,97374.84
2023-05-14T07:37:34.098Z,97378.94
2023-05-14T07:41:35.625Z,97380.75
2023-05-14T07:45:37.645Z,97377.47
2023-05-14T07:49:40.547Z,97373.28
2023-05-14T07:53:42.069Z,97373.84
2023-05-14T07:57:43.601Z,97372.78
2023-05-14T08:01:45.163Z,97369.53
2023-05-14T08:05:48.077Z,97359.59
2023-05-14T08:09:49.603Z,97362.59
2023-05-14T08:13:51.124Z,97362.94
2023-05-14T08:17:52.740Z,97357.03
2023-05-14T08:21:55.699Z,97346.91
2023-05-14T08:25:57.250Z,97330.31
2023-05-14T08:29:58.847Z,97328.75
2023-05-14T08:34:00.366Z,97322.78
2023-05-14T08:38:03.218Z,97316.00
2023-05-14T08:42:06.412Z,97320.56
2023-05-14T08:46:10.950Z,97317.25
2023-05-14T08:50:12.657Z,97317.81
2023-05-14T08:54:17.358Z,97318.59
2023-05-14T08:58:19.239Z,97316.59
2023-05-14T09:02:23.323Z,97308.56
2023-05-14T09:06:27.114Z,97306.22
2023-05-14T09:10:29.996Z,97308.28
2023-05-14T09:14:33.292Z,97304.88
2023-05-14T09:18:36.397Z,97298.47
2023-05-14T09:22:38.725Z,97287.69
2023-05-14T09:26:41.642Z,97292.25
2023-05-14T09:30:46.682Z,97288.09
2023-05-14T09:34:48.204Z,97298.97
2023-05-14T09:38:49.731Z,97297.22
2023-05-14T09:42:52.590Z,97295.53
2023-05-14T09:46:54.568Z,97291.81
2023-05-14T09:50:56.480Z,97288.25
2023-05-14T09:54:58.399Z,97286.91
2023-05-14T09:59:01.552Z,97272.13
2023-05-14T10:03:05.712Z,97265.72
2023-05-14T10:07:07.567Z,97269.69
2023-05-14T10:11:13.935Z,97267.44
2023-05-14T10:15:21.354Z,97251.09
2023-05-14T10:19:24.802Z,97255.31
2023-05-14T10:23:27.133Z,97257.53
2023-05-14T10:27:29.055Z,97257.50
2023-05-14T10:31:51.726Z,97248.25
2023-05-14T10:36:01.279Z,97253.78
2023-05-14T10:40:04.144Z,97245.75
2023-05-14T10:44:08.518Z,97235.91
2023-05-14T10:48:11.823Z,97230.00
2023-05-14T10:52:13.461Z,97228.94
2023-05-14T10:56:18.078Z,97225.88
2023-05-14T11:00:19.809Z,97220.94
2023-05-14T11:04:24.566Z,97224.00
2023-05-14T11:08:28.013Z,97224.34
2023-05-14T11:12:31.611Z,97217.34
2023-05-14T11:16:33.867Z,97213.25
2023-05-14T11:20:37.334Z,97202.69
2023-05-14T11:24:38.871Z,97202.88
2023-05-14T11:28:40.573Z,97204.06
2023-05-14T11:32:44.352Z,97202.38
2023-05-14T11:36:47.220Z,97192.78
2023-05-14T11:40:51.981Z,97202.66
2023-05-14T11:44:53.807Z,97199.78
2023-05-14T11:48:55.318Z,97190.13
2023-05-14T11:52:58.171Z,97190.13
2023-05-14T11:57:01.427Z,97181.63
2023-05-14T12:01:03.003Z,97182.94
2023-05-14T12:05:06.128Z,97173.88
2023-05-14T12:09:12.810Z,97169.94
2023-05-14T12:13:15.670Z,97172.44
2023-05-14T12:17:18.790Z,97155.06
2023-05-14T12:21:20.395Z,97155.63
2023-05-14T12:25:25.898Z,97159.34
2023-05-14T12:29:27.400Z,97144.41
2023-05-14T12:33:29.013Z,97145.50
2023-05-14T12:37:31.319Z,97137.97
2023-05-14T12:41:34.317Z,97132.69
2023-05-14T12:45:35.901Z,97133.78
2023-05-14T12:49:37.423Z,97125.91
2023-05-14T12:53:39.019Z,97132.59
2023-05-14T12:57:42.019Z,97125.84
2023-05-14T13:01:43.402Z,97123.09
2023-05-14T13:05:44.965Z,97126.63
2023-05-14T13:09:46.568Z,97120.69
2023-05-14T13:13:49.434Z,97118.94
2023-05-14T13:17:50.967Z,97114.72
2023-05-14T13:21:52.506Z,97116.16
2023-05-14T13:25:54.030Z,97113.63
2023-05-14T13:29:57.039Z,97120.31
2023-05-14T13:33:58.567Z,97132.69
2023-05-14T13:38:00.236Z,97143.66
2023-05-14T13:42:01.771Z,97141.44
2023-05-14T13:46:05.823Z,97133.59
2023-05-14T13:50:08.164Z,97127.59
2023-05-14T13:54:09.756Z,97123.06
2023-05-14T13:58:11.431Z,97123.44
2023-05-14T14:02:14.912Z,97123.53
2023-05-14T14:06:16.459Z,97127.50
2023-05-14T14:10:17.982Z,97132.19
2023-05-14T14:14:19.519Z,97145.19
2023-05-14T14:18:22.381Z,97129.66
2023-05-14T14:22:27.183Z,97125.22
2023-05-14T14:26:30.569Z,97123.19
2023-05-14T14:30:32.605Z,97125.09
2023-05-14T14:34:35.480Z,97120.81
2023-05-14T14:38:37.174Z,97125.28
2023-05-14T14:42:38.665Z,97128.97
2023-05-14T14:46:40.152Z,97132.88
2023-05-14T14:50:43.021Z,97126.66
2023-05-14T14:54:44.526Z,97127.44
2023-05-14T14:58:46.048Z,97132.59
2023-05-14T15:02:47.678Z,97132.09
2023-05-14T15:06:50.604Z,97128.91
2023-05-14T15:10:52.266Z,97139.84
2023-05-14T15:14:53.793Z,97134.84
2023-05-14T15:18:55.413Z,97137.00
2023-05-14T15:22:58.539Z,97138.91
2023-05-14T15:27:01.185Z,97141.84
2023-05-14T15:31:03.083Z,97145.91
2023-05-14T15:35:05.412Z,97146.59
2023-05-14T15:39:08.276Z,97137.50
2023-05-14T15:43:09.776Z,97141.09
2023-05-14T15:47:11.276Z,97144.66
2023-05-14T15:51:13.621Z,97144.72
2023-05-14T15:55:16.595Z,97141.19
2023-05-14T15:59:18.256Z,97143.06
2023-05-14T16:03:19.860Z,97136.56
2023-05-14T16:07:21.638Z,97132.13
2023-05-14T16:11:24.488Z,97138.28
2023-05-14T16:15:26.115Z,97123.25
2023-05-14T16:19:27.859Z,97122.44
2023-05-14T16:23:29.434Z,97111.63
2023-05-14T16:27:32.372Z,97115.41
2023-05-14T16:31:33.930Z,97112.63
2023-05-14T16:35:35.508Z,97106.72
2023-05-14T16:39:37.012Z,97106.06
2023-05-14T16:43:39.856Z,97110.69
2023-05-14T16:47:41.378Z,97111.69
2023-05-14T16:51:42.917Z,97113.34
2023-05-14T16:55:44.433Z,97114.50
2023-05-14T16:59:47.359Z,97108.44
2023-05-14T17:03:48.871Z,97101.81
2023-05-14T17:07:50.377Z,97106.63
2023-05-14T17:11:51.929Z,97101.91
2023-05-14T17:15:55.096Z,97102.25
2023-05-14T17:19:56.453Z,97097.41
2023-05-14T17:23:58.486Z,97100.47
2023-05-14T17:28:00.011Z,97101.81
2023-05-14T17:32:03.212Z,97091.84
2023-05-14T17:36:05.075Z,97100.75
2023-05-14T17:40:07.661Z,97112.94
2023-05-14T17:44:10.735Z,97110.91
2023-05-14T17:48:15.498Z,97105.09
2023-05-14T17:52:17.170Z,97107.03
2023-05-14T17:56:19.161Z,97112.28
2023-05-14T18:00:20.863Z,97109.63
2023-05-14T18:04:23.715Z,97099.41
2023-05-14T18:08:25.263Z,97104.47
2023-05-14T18:12:26.794Z,97103.47
2023-05-14T18:16:28.421Z,97102.19
2023-05-14T18:20:33.426Z,97106.66
2023-05-14T18:24:36.319Z,97100.25
2023-05-14T18:28:37.926Z,97098.59
2023-05-14T18:32:39.487Z,97093.25
2023-05-14T18:36:42.396Z,97095.66
2023-05-14T18:40:43.920Z,97104.50
2023-05-14T18:44:45.435Z,97094.31
2023-05-14T18:48:46.996Z,97093.66
2023-05-14T18:52:49.874Z,97083.00
2023-05-14T18:56:51.415Z,97091.47
2023-05-14T19:00:52.954Z,97086.63
2023-05-14T19:04:54.454Z,97102.34
2023-05-14T19:08:57.370Z,97101.50
2023-05-14T19:12:59.129Z,97106.84
2023-05-14T19:17:00.810Z,97103.16
2023-05-14T19:21:02.342Z,97106.78
2023-05-14T19:25:07.749Z,97110.66
2023-05-14T19:29:09.922Z,97114.47
2023-05-14T19:33:11.418Z,97113.16
2023-05-14T19:37:12.983Z,97101.59
2023-05-14T19:41:15.853Z,97102.44
2023-05-14T19:45:17.416Z,97110.53
2023-05-14T19:49:18.961Z,97110.41
2023-05-14T19:53:20.501Z,97106.63
2023-05-14T19:57:23.386Z,97110.91
2023-05-14T20:01:25.072Z,97114.16
2023-05-14T20:05:26.715Z,97110.66
2023-05-14T20:09:28.268Z,97105.34
2023-05-14T20:13:31.184Z,97101.06
2023-05-14T20:17:32.741Z,97108.06
2023-05-14T20:21:34.298Z,97103.97
2023-05-14T20:25:35.856Z,97103.78
2023-05-14T20:29:38.740Z,97104.09
2023-05-14T20:33:40.275Z,97106.44
2023-05-14T20:37:41.810Z,97101.63
2023-05-14T20:41:43.350Z,97097.31
2023-05-14T20:45:46.228Z,97097.38
2023-05-14T20:49:48.079Z,97100.00
2023-05-14T20:53:49.604Z,97091.53
2023-05-14T20:57:51.138Z,97092.63
2023-05-14T21:01:54.040Z,97088.84
2023-05-14T21:05:55.622Z,97087.13
2023-05-14T21:09:57.161Z,97081.72
2023-05-14T21:13:58.683Z,97085.88
2023-05-14T21:18:02.039Z,97091.59
2023-05-14T21:22:03.618Z,97093.75
2023-05-14T21:26:05.146Z,97093.97
2023-05-14T21:30:07.928Z,97096.78
2023-05-14T21:34:10.796Z,97101.53
2023-05-14T21:38:12.406Z,97101.09
2023-05-14T21:42:13.965Z,97094.22
2023-05-14T21:46:15.631Z,97091.75
2023-05-14T21:50:18.646Z,97088.84
2023-05-14T21:54:20.463Z,97089.53
2023-05-14T21:58:22.047Z,97088.72
2023-05-14T22:02:23.736Z,97095.84
2023-05-14T22:06:26.818Z,97092.00
2023-05-14T22:10:30.424Z,97092.28
2023-05-14T22:14:31.941Z,97075.91
2023-05-14T22:18:33.484Z,97077.56
2023-05-14T22:22:37.024Z,97071.84
2023-05-14T22:26:38.545Z,97073.97
2023-05-14T22:30:40.056Z,97069.09
2023-05-14T22:34:41.627Z,97078.19
2023-05-14T22:38:44.499Z,97075.00
2023-05-14T22:42:46.012Z,97060.19
2023-05-14T22:46:47.642Z,97067.97
2023-05-14T22:50:49.170Z,97064.16
2023-05-14T22:54:52.048Z,97071.06
2023-05-14T22:58:53.574Z,97062.81
2023-05-14T23:02:55.135Z,97049.38
2023-05-14T23:06:57.643Z,97047.94
2023-05-14T23:11:00.568Z,97045.41
2023-05-14T23:15:02.127Z,97048.59
2023-05-14T23:19:03.713Z,97043.69
2023-05-14T23:23:05.531Z,97037.69
2023-05-14T23:27:08.607Z,97024.41
2023-05-14T23:31:10.253Z,97020.56
2023-05-14T23:35:11.818Z,97009.53
2023-05-14T23:39:13.470Z,97007.41
2023-05-14T23:43:16.336Z,96998.69
2023-05-14T23:47:17.869Z,96991.50
2023-05-14T23:51:19.408Z,96991.97
2023-05-14T23:55:21.523Z,96979.69
2023-05-14T23:59:24.401Z,96978.59
